Warnow Moon — A8VX3 — position and weather

sailwx.info

Track history (hours):
 
Tides and Currents Weather Stations Pressure Air Temp Water Temp Dewpoint Dewpoint Depression Visibility Wind Speed Wind Dir Waves Ship Positions

Warnow Moon

Last reported at 2015-May-13 14:33 UTC. Time now 2015-May-28 08:03 UTC.
Position N 29°21' W 094°45'.
Warning: this ship's position is 14 days out of date.

Length 180 m; draft 7.6 m.

Type: Cargo ship. MMSI: 636016909.

Date/timePositionNaut miles runAvg speedWind from/ knotsBaromVisibWave heightAir tempDewpointWater temp
2015-May-13 14:33N 29°21' W 094°45'1211.5
2015-May-13 13:30N 29°31' W 094°53'1111.7
2015-May-13 12:33N 29°41' W 094°59'8 6.9
2015-May-13 11:27N 29°45' W 095°06'1 0.8
2015-May-13 10:31N 29°44' W 095°07'0 0.0
2015-May-13 09:31N 29°44' W 095°07'0 0.0
2015-May-13 08:31N 29°44' W 095°07'0 0.0
2015-May-13 07:31N 29°44' W 095°07'0 0.0
2015-May-13 06:31N 29°44' W 095°07'0 0.0
2015-May-13 05:31N 29°44' W 095°07'0 0.0
2015-May-13 04:31N 29°44' W 095°07'0 0.0
2015-May-13 03:31N 29°44' W 095°07'0 0.0
2015-May-13 02:31N 29°44' W 095°07'0 0.0
2015-May-13 01:31N 29°44' W 095°07'0 0.0
2015-May-13 00:31N 29°44' W 095°07'0 0.0
2015-May-12 23:31N 29°44' W 095°07'0 0.0
2015-May-12 22:31N 29°44' W 095°07'0 0.0
2015-May-12 21:31N 29°44' W 095°07'0 0.0
2015-May-12 20:31N 29°44' W 095°07'0 0.0
2015-May-12 19:31N 29°44' W 095°07'0 0.0
2015-May-12 18:28N 29°44' W 095°07'0 0.0
2015-May-12 17:31N 29°44' W 095°07'0 0.0
2015-May-12 16:31N 29°44' W 095°07'0 0.0
2015-May-12 15:31N 29°44' W 095°07'0 0.0
2015-May-12 14:31N 29°44' W 095°07'0 0.0
2015-May-12 13:31N 29°44' W 095°07'0 0.0
2015-May-12 12:31N 29°44' W 095°07'0 0.0
2015-May-12 11:31N 29°44' W 095°07'0 0.0
2015-May-12 10:31N 29°44' W 095°07'0 0.0
2015-May-12 09:31N 29°44' W 095°07'0 0.0
2015-May-12 08:31N 29°44' W 095°07'0 0.0
2015-May-12 07:31N 29°44' W 095°07'0 0.0
2015-May-12 06:25N 29°44' W 095°07'0 0.0
2015-May-12 05:31N 29°44' W 095°07'0 0.0
2015-May-12 04:31N 29°44' W 095°07'0 0.0
2015-May-12 03:31N 29°44' W 095°07'0 0.0
2015-May-12 02:31N 29°44' W 095°07'0 0.0
2015-May-12 01:28N 29°44' W 095°07'0 0.0
2015-May-12 00:33N 29°44' W 095°07'3 2.7
2015-May-11 23:34N 29°45' W 095°04'7 7.4
2015-May-11 22:33N 29°40' W 094°58'1211.8
2015-May-11 21:33N 29°29' W 094°52'  
2015-May-08 03:33N 25°56' W 079°29'1010.2
2015-May-08 02:33N 26°06' W 079°29'1010.0
2015-May-08 01:33N 26°16' W 079°27'  
2015-May-04 17:18N 38°02' W 076°13'912.1
2015-May-04 16:31N 38°11' W 076°15'3912.3
2015-May-04 13:22N 38°49' W 076°25'1012.1
2015-May-04 12:33N 38°59' W 076°23'1111.1
2015-May-04 11:33N 39°10' W 076°25'9 8.7
2015-May-04 10:31N 39°16' W 076°34'0 0.1
2015-May-04 09:28N 39°16' W 076°34'0 0.0
2015-May-04 06:31N 39°16' W 076°34'0 0.0
2015-May-04 05:31N 39°16' W 076°34'0 0.0
2015-May-04 04:07N 39°16' W 076°34'0 0.0
2015-May-04 03:31N 39°16' W 076°34'0 0.0
2015-May-04 02:31N 39°16' W 076°34'0 0.0
2015-May-03 16:07N 39°16' W 076°34'  
Track history (hours):
 
Tides and Currents Weather Stations Pressure Air Temp Water Temp Dewpoint Dewpoint Depression Visibility Wind Speed Wind Dir Waves Ship Positions

Warnow Moon

Last reported at 2015-May-13 14:33 UTC. Time now 2015-May-28 08:03 UTC.
Position N 29°21' W 094°45'.
Warning: this ship's position is 14 days out of date.

Length 180 m; draft 7.6 m.

Type: Cargo ship. MMSI: 636016909.

Date/timePositionNaut miles runAvg speedWind from/ knotsBaromVisibWave heightAir tempDewpointWater temp
2015-May-13 14:33N 29°21' W 094°45'1211.5
2015-May-13 13:30N 29°31' W 094°53'1111.7
2015-May-13 12:33N 29°41' W 094°59'8 6.9
2015-May-13 11:27N 29°45' W 095°06'1 0.8
2015-May-13 10:31N 29°44' W 095°07'0 0.0
2015-May-13 09:31N 29°44' W 095°07'0 0.0
2015-May-13 08:31N 29°44' W 095°07'0 0.0
2015-May-13 07:31N 29°44' W 095°07'0 0.0
2015-May-13 06:31N 29°44' W 095°07'0 0.0
2015-May-13 05:31N 29°44' W 095°07'0 0.0
2015-May-13 04:31N 29°44' W 095°07'0 0.0
2015-May-13 03:31N 29°44' W 095°07'0 0.0
2015-May-13 02:31N 29°44' W 095°07'0 0.0
2015-May-13 01:31N 29°44' W 095°07'0 0.0
2015-May-13 00:31N 29°44' W 095°07'0 0.0
2015-May-12 23:31N 29°44' W 095°07'0 0.0
2015-May-12 22:31N 29°44' W 095°07'0 0.0
2015-May-12 21:31N 29°44' W 095°07'0 0.0
2015-May-12 20:31N 29°44' W 095°07'0 0.0
2015-May-12 19:31N 29°44' W 095°07'0 0.0
2015-May-12 18:28N 29°44' W 095°07'0 0.0
2015-May-12 17:31N 29°44' W 095°07'0 0.0
2015-May-12 16:31N 29°44' W 095°07'0 0.0
2015-May-12 15:31N 29°44' W 095°07'0 0.0
2015-May-12 14:31N 29°44' W 095°07'0 0.0
2015-May-12 13:31N 29°44' W 095°07'0 0.0
2015-May-12 12:31N 29°44' W 095°07'0 0.0
2015-May-12 11:31N 29°44' W 095°07'0 0.0
2015-May-12 10:31N 29°44' W 095°07'0 0.0
2015-May-12 09:31N 29°44' W 095°07'0 0.0
2015-May-12 08:31N 29°44' W 095°07'0 0.0
2015-May-12 07:31N 29°44' W 095°07'0 0.0
2015-May-12 06:25N 29°44' W 095°07'0 0.0
2015-May-12 05:31N 29°44' W 095°07'0 0.0
2015-May-12 04:31N 29°44' W 095°07'0 0.0
2015-May-12 03:31N 29°44' W 095°07'0 0.0
2015-May-12 02:31N 29°44' W 095°07'0 0.0
2015-May-12 01:28N 29°44' W 095°07'0 0.0
2015-May-12 00:33N 29°44' W 095°07'3 2.7
2015-May-11 23:34N 29°45' W 095°04'7 7.4
2015-May-11 22:33N 29°40' W 094°58'1211.8
2015-May-11 21:33N 29°29' W 094°52'  
2015-May-08 03:33N 25°56' W 079°29'1010.2
2015-May-08 02:33N 26°06' W 079°29'1010.0
2015-May-08 01:33N 26°16' W 079°27'  
2015-May-04 17:18N 38°02' W 076°13'912.1
2015-May-04 16:31N 38°11' W 076°15'3912.3
2015-May-04 13:22N 38°49' W 076°25'1012.1
2015-May-04 12:33N 38°59' W 076°23'1111.1
2015-May-04 11:33N 39°10' W 076°25'9 8.7
2015-May-04 10:31N 39°16' W 076°34'0 0.1
2015-May-04 09:28N 39°16' W 076°34'0 0.0
2015-May-04 06:31N 39°16' W 076°34'0 0.0
2015-May-04 05:31N 39°16' W 076°34'0 0.0
2015-May-04 04:07N 39°16' W 076°34'0 0.0
2015-May-04 03:31N 39°16' W 076°34'0 0.0
2015-May-04 02:31N 39°16' W 076°34'0 0.0
2015-May-03 16:07N 39°16' W 076°34'  

Dump ship's entire track history